Time;durP1;ratioP1;P1;durP2;ratioP2;P2;SDS_P1;SDS_P2;PMS_P1;PMS_P2;Temp;Humidity;BMP_temperature;BMP_pressure;BME280_temperature;BME280_humidity;BME280_pressure;Samples;Min_cycle;Max_cycle;Signal;HPM_P1;HPM_P2
2023/08/07 00:01:45;;;;;;;0.73;0.73;;;13.10;99.90;;;;;;5029940;28;20017;-81
2023/08/07 00:04:10;;;;;;;1.20;0.70;;;13.20;99.90;;;;;;5028191;28;20038;-82
2023/08/07 00:06:36;;;;;;;1.75;0.60;;;13.10;99.90;;;;;;5029494;28;20526;-81
2023/08/07 00:09:02;;;;;;;0.80;0.73;;;13.00;99.90;;;;;;5028762;28;20025;-81
2023/08/07 00:11:28;;;;;;;1.67;0.95;;;13.00;99.90;;;;;;5029949;28;20536;-81
2023/08/07 00:13:54;;;;;;;1.63;0.70;;;12.90;99.90;;;;;;5029755;28;20497;-81
2023/08/07 00:16:19;;;;;;;2.67;1.13;;;13.00;99.90;;;;;;5026900;28;20038;-81
2023/08/07 00:18:45;;;;;;;2.25;0.82;;;13.00;99.90;;;;;;5030141;28;20018;-81
2023/08/07 00:21:11;;;;;;;1.85;0.88;;;13.00;99.90;;;;;;5012836;28;20052;-81
2023/08/07 00:23:37;;;;;;;1.10;0.80;;;13.00;99.90;;;;;;5026727;28;20371;-82
2023/08/07 00:26:03;;;;;;;1.70;1.00;;;13.10;99.90;;;;;;5028317;28;20032;-81
2023/08/07 00:28:29;;;;;;;2.33;1.10;;;13.10;99.90;;;;;;5029335;28;20028;-80
2023/08/07 00:30:55;;;;;;;2.08;1.17;;;13.20;99.90;;;;;;5023198;28;20032;-81
2023/08/07 00:33:21;;;;;;;2.20;0.90;;;13.20;99.90;;;;;;5053101;22;20570;-88
2023/08/07 00:35:46;;;;;;;1.25;0.90;;;13.30;99.90;;;;;;5031958;28;20052;-89
2023/08/07 00:38:12;;;;;;;2.05;1.00;;;13.20;99.90;;;;;;5032176;28;20048;-88
2023/08/07 00:40:39;;;;;;;2.70;0.93;;;13.30;99.90;;;;;;5033731;28;20014;-91
2023/08/07 00:43:05;;;;;;;1.27;0.90;;;13.30;99.90;;;;;;5031329;28;20030;-89
2023/08/07 00:45:36;;;;;;;2.15;0.77;;;13.40;99.90;;;;;;5032484;28;20041;-89
2023/08/07 00:48:02;;;;;;;1.70;1.00;;;13.40;99.90;;;;;;5031671;28;20108;-92
2023/08/07 00:50:28;;;;;;;1.35;1.15;;;13.40;99.90;;;;;;5032511;28;20013;-89
2023/08/07 00:52:54;;;;;;;2.35;1.05;;;13.40;99.90;;;;;;5031208;28;20052;-89
2023/08/07 00:55:20;;;;;;;4.35;0.95;;;13.40;99.90;;;;;;5032335;28;20029;-86
2023/08/07 00:57:46;;;;;;;3.20;0.90;;;13.40;99.90;;;;;;5032083;28;20075;-90
2023/08/07 01:00:13;;;;;;;1.67;1.17;;;13.40;99.90;;;;;;5032735;28;20021;-87
2023/08/07 01:02:39;;;;;;;2.28;1.25;;;13.40;99.90;;;;;;5031988;28;20437;-91
2023/08/07 01:05:05;;;;;;;2.55;1.20;;;13.40;99.90;;;;;;5032009;28;20071;-88
2023/08/07 01:07:30;;;;;;;1.40;1.10;;;13.40;99.90;;;;;;5025338;28;20022;-88
2023/08/07 01:09:57;;;;;;;3.05;1.20;;;13.40;99.90;;;;;;5030730;28;20030;-91
2023/08/07 01:12:30;;;;;;;2.58;1.20;;;13.40;99.90;;;;;;5030835;28;20494;-88
2023/08/07 01:15:05;;;;;;;2.08;0.90;;;13.40;99.90;;;;;;5032457;28;20033;-91
2023/08/07 01:17:33;;;;;;;3.08;1.08;;;13.40;99.90;;;;;;5008424;28;20030;-91
2023/08/07 01:19:59;;;;;;;2.22;1.25;;;13.30;99.90;;;;;;5031614;28;20151;-89
2023/08/07 01:22:25;;;;;;;1.88;1.00;;;13.30;99.90;;;;;;5030732;28;20076;-89
2023/08/07 01:24:51;;;;;;;1.98;1.08;;;13.30;99.90;;;;;;5032373;28;20013;-89
2023/08/07 01:27:19;;;;;;;2.10;1.13;;;13.30;99.90;;;;;;5031966;28;20061;-88
2023/08/07 01:29:59;;;;;;;5.65;1.25;;;13.30;99.90;;;;;;5032125;28;20021;-89
2023/08/07 01:32:48;;;;;;;3.33;1.25;;;13.20;99.90;;;;;;5051862;22;20219;-81
2023/08/07 01:35:16;;;;;;;1.35;1.08;;;13.20;99.90;;;;;;5011010;28;20689;-81
2023/08/07 01:37:42;;;;;;;2.80;1.10;;;13.20;99.90;;;;;;5030533;28;20029;-81
2023/08/07 01:40:10;;;;;;;1.65;1.10;;;13.20;99.90;;;;;;5033142;28;20020;-80
2023/08/07 01:42:36;;;;;;;3.03;1.40;;;13.10;99.90;;;;;;5032623;28;20389;-80
2023/08/07 01:45:03;;;;;;;2.95;1.77;;;13.10;99.90;;;;;;5032564;28;20076;-81
2023/08/07 01:47:29;;;;;;;2.45;1.17;;;13.10;99.90;;;;;;5042054;28;20025;-83
2023/08/07 01:49:55;;;;;;;4.10;1.17;;;13.10;99.90;;;;;;5032705;28;20462;-82
2023/08/07 01:52:21;;;;;;;2.17;1.40;;;13.10;99.90;;;;;;5032848;28;20033;-81
2023/08/07 01:54:46;;;;;;;3.58;1.50;;;13.10;99.90;;;;;;5033087;28;20028;-82
2023/08/07 01:57:12;;;;;;;2.47;1.65;;;13.10;99.90;;;;;;5032479;28;20029;-82
2023/08/07 01:59:38;;;;;;;1.85;1.23;;;13.10;99.90;;;;;;5032242;28;20026;-81
2023/08/07 02:02:04;;;;;;;3.00;1.15;;;13.00;99.90;;;;;;5026991;28;20360;-81
2023/08/07 02:04:29;;;;;;;4.13;1.30;;;13.10;99.90;;;;;;5031399;28;20024;-83
2023/08/07 02:06:55;;;;;;;1.42;1.10;;;13.10;99.90;;;;;;5047628;28;20490;-81
2023/08/07 02:09:22;;;;;;;1.75;1.17;;;13.10;99.90;;;;;;5047808;28;20053;-81
2023/08/07 02:11:47;;;;;;;2.05;1.30;;;13.10;99.90;;;;;;5030707;28;20119;-85
2023/08/07 02:14:13;;;;;;;2.42;1.20;;;13.10;99.90;;;;;;5032129;28;20169;-82
2023/08/07 02:16:38;;;;;;;1.90;1.20;;;13.10;99.90;;;;;;5047582;28;20037;-82
2023/08/07 02:19:04;;;;;;;3.13;1.20;;;13.10;99.90;;;;;;5046791;28;20021;-83
2023/08/07 02:21:30;;;;;;;2.00;1.40;;;13.00;99.90;;;;;;5031994;28;20036;-82
2023/08/07 02:23:55;;;;;;;3.22;1.45;;;13.00;99.90;;;;;;5032467;28;20021;-81
2023/08/07 02:26:21;;;;;;;1.63;1.10;;;13.00;99.90;;;;;;5031691;28;20018;-80
2023/08/07 02:28:46;;;;;;;3.70;1.38;;;13.00;99.90;;;;;;5031918;28;20394;-85
2023/08/07 02:31:12;;;;;;;2.58;1.20;;;13.00;99.90;;;;;;5032303;28;20022;-82
2023/08/07 02:33:38;;;;;;;2.05;1.15;;;13.00;99.90;;;;;;5065220;23;20041;-88
2023/08/07 02:36:03;;;;;;;2.42;1.38;;;13.10;99.90;;;;;;5054314;28;20643;-92
2023/08/07 02:38:29;;;;;;;1.67;1.30;;;13.10;99.90;;;;;;5054552;28;20028;-88
2023/08/07 02:40:55;;;;;;;3.30;1.17;;;13.10;99.90;;;;;;5053609;28;20057;-91
2023/08/07 02:43:20;;;;;;;4.30;1.50;;;13.10;99.90;;;;;;5036323;28;20125;-91
2023/08/07 02:45:46;;;;;;;4.47;1.33;;;13.10;99.90;;;;;;5034338;28;20049;-87
2023/08/07 02:48:12;;;;;;;3.97;1.40;;;13.10;99.90;;;;;;5033679;28;20017;-91
2023/08/07 02:50:37;;;;;;;3.15;1.40;;;13.00;99.90;;;;;;5032329;28;20025;-88
2023/08/07 02:53:03;;;;;;;2.05;1.30;;;13.00;99.90;;;;;;5032159;28;20026;-90
2023/08/07 02:55:28;;;;;;;2.00;1.35;;;13.00;99.90;;;;;;5033336;28;20021;-90
2023/08/07 02:57:54;;;;;;;1.63;1.42;;;13.00;99.90;;;;;;5030762;28;20046;-90
2023/08/07 03:00:20;;;;;;;1.95;1.13;;;12.90;99.90;;;;;;5033233;28;20029;-90
2023/08/07 03:02:45;;;;;;;1.77;1.20;;;12.90;99.90;;;;;;5025117;28;20544;-88
2023/08/07 03:05:11;;;;;;;2.35;1.45;;;12.90;99.90;;;;;;5033056;28;20037;-89
2023/08/07 03:07:37;;;;;;;3.00;1.27;;;12.80;99.90;;;;;;5032834;28;20021;-87
2023/08/07 03:10:04;;;;;;;3.25;1.33;;;12.80;99.90;;;;;;5033019;28;20029;-90
2023/08/07 03:12:29;;;;;;;1.90;1.45;;;12.80;99.90;;;;;;5032358;28;20009;-88
2023/08/07 03:14:55;;;;;;;1.45;1.23;;;12.70;99.90;;;;;;5032684;28;20033;-88
2023/08/07 03:17:21;;;;;;;5.47;1.20;;;12.60;99.90;;;;;;5031350;28;20036;-88
2023/08/07 03:19:46;;;;;;;1.85;1.20;;;12.50;99.90;;;;;;5032344;28;20021;-88
2023/08/07 03:22:12;;;;;;;2.95;1.42;;;12.40;99.90;;;;;;5030899;28;20032;-88
2023/08/07 03:24:38;;;;;;;1.63;1.27;;;12.20;99.90;;;;;;5032446;28;20014;-87
2023/08/07 03:27:04;;;;;;;4.30;1.40;;;12.10;99.90;;;;;;5032135;28;20047;-87
2023/08/07 03:29:30;;;;;;;3.97;1.27;;;12.00;99.90;;;;;;5023602;28;20592;-88
2023/08/07 03:31:55;;;;;;;5.63;1.40;;;11.90;99.90;;;;;;5046924;23;20036;-81
2023/08/07 03:34:21;;;;;;;2.08;1.20;;;11.90;99.90;;;;;;5003961;28;20042;-81
2023/08/07 03:36:47;;;;;;;1.98;1.67;;;11.80;99.90;;;;;;5010619;28;20022;-83
2023/08/07 03:39:12;;;;;;;3.42;1.70;;;11.70;99.90;;;;;;5010695;28;20044;-83
2023/08/07 03:41:38;;;;;;;5.28;1.83;;;11.60;99.90;;;;;;5008420;28;20041;-83
2023/08/07 03:44:04;;;;;;;6.30;1.58;;;11.50;99.90;;;;;;4991553;28;20386;-83
2023/08/07 03:46:30;;;;;;;2.15;1.58;;;11.40;99.90;;;;;;4992391;28;20018;-81
2023/08/07 03:48:55;;;;;;;1.58;1.20;;;11.30;99.90;;;;;;4990399;28;20418;-81
2023/08/07 03:51:21;;;;;;;2.00;1.30;;;11.30;99.90;;;;;;4991852;28;20430;-83
2023/08/07 03:53:46;;;;;;;1.45;1.23;;;11.20;99.90;;;;;;4991651;28;20381;-82
2023/08/07 03:56:12;;;;;;;4.65;1.40;;;11.10;99.90;;;;;;4990711;28;20025;-82
2023/08/07 03:58:38;;;;;;;2.20;1.20;;;11.00;99.90;;;;;;4991739;28;20533;-82
2023/08/07 04:01:03;;;;;;;1.88;1.58;;;10.90;99.90;;;;;;4989585;28;20122;-82
2023/08/07 04:03:29;;;;;;;2.25;1.50;;;10.90;99.90;;;;;;4991628;28;20081;-83
2023/08/07 04:05:55;;;;;;;4.00;1.58;;;10.80;99.90;;;;;;4992922;28;20018;-83
2023/08/07 04:08:21;;;;;;;2.08;1.30;;;10.80;99.90;;;;;;4992157;28;20046;-83
2023/08/07 04:11:04;;;;;;;2.38;1.70;;;10.70;99.90;;;;;;4991864;28;20053;-84
2023/08/07 04:13:31;;;;;;;2.53;1.30;;;10.60;99.90;;;;;;4991478;28;20022;-82
2023/08/07 04:15:57;;;;;;;3.45;1.60;;;10.60;99.90;;;;;;4990097;28;20032;-83
2023/08/07 04:18:23;;;;;;;2.80;1.65;;;10.50;99.90;;;;;;4990965;28;20487;-81
2023/08/07 04:20:53;;;;;;;1.75;1.63;;;10.50;99.90;;;;;;4990252;28;20026;-81
2023/08/07 04:23:19;;;;;;;3.90;1.75;;;10.40;99.90;;;;;;4990283;28;20030;-82
2023/08/07 04:25:46;;;;;;;4.00;1.70;;;10.50;99.90;;;;;;4990406;28;20027;-82
2023/08/07 04:28:12;;;;;;;3.00;1.50;;;10.40;99.90;;;;;;4991748;28;20101;-82
2023/08/07 04:30:37;;;;;;;3.67;1.60;;;10.40;99.90;;;;;;4990272;28;20117;-82
2023/08/07 04:33:04;;;;;;;8.10;2.05;;;10.30;99.90;;;;;;5042184;23;20126;-86
2023/08/07 04:35:30;;;;;;;4.72;2.03;;;10.30;99.90;;;;;;5032553;28;20049;-86
2023/08/07 04:37:56;;;;;;;5.95;2.50;;;10.30;99.90;;;;;;5038049;28;20095;-87
2023/08/07 04:40:21;;;;;;;5.35;1.98;;;10.30;99.90;;;;;;5031164;28;20103;-87
2023/08/07 04:42:49;;;;;;;2.80;1.80;;;10.30;99.90;;;;;;5038258;28;20036;-88
2023/08/07 04:45:15;;;;;;;2.70;1.98;;;10.40;99.90;;;;;;5032484;28;20022;-88
2023/08/07 04:47:41;;;;;;;2.17;1.67;;;10.40;99.90;;;;;;5031709;28;20112;-88
2023/08/07 04:50:08;;;;;;;3.95;2.00;;;10.30;99.90;;;;;;5031912;28;20096;-88
2023/08/07 04:52:34;;;;;;;2.97;1.70;;;10.30;99.90;;;;;;5031217;28;20496;-88
2023/08/07 04:54:59;;;;;;;3.97;1.73;;;10.30;99.90;;;;;;5032897;28;20076;-87
2023/08/07 04:57:25;;;;;;;4.07;2.00;;;10.50;99.90;;;;;;5038047;28;20029;-89
2023/08/07 04:59:52;;;;;;;4.45;1.80;;;10.60;99.90;;;;;;5038045;28;20022;-86
2023/08/07 05:02:17;;;;;;;3.75;1.70;;;10.60;99.90;;;;;;5031060;28;20061;-87
2023/08/07 05:04:43;;;;;;;3.40;1.80;;;10.50;99.90;;;;;;5030457;28;20052;-87
2023/08/07 05:07:09;;;;;;;3.22;2.00;;;10.50;99.90;;;;;;5045857;28;20531;-88
2023/08/07 05:09:35;;;;;;;6.18;2.13;;;10.60;99.90;;;;;;5037323;28;20021;-87
2023/08/07 05:12:01;;;;;;;7.03;1.63;;;10.60;99.90;;;;;;5036242;28;20059;-88
2023/08/07 05:14:27;;;;;;;3.60;1.92;;;10.60;99.90;;;;;;5041301;28;20431;-86
2023/08/07 05:16:52;;;;;;;3.70;1.90;;;10.60;99.90;;;;;;5035780;28;20048;-86
2023/08/07 05:19:18;;;;;;;3.20;1.95;;;10.70;99.90;;;;;;5035293;28;20022;-86
2023/08/07 05:21:44;;;;;;;2.45;1.60;;;10.60;99.90;;;;;;5042404;28;20022;-86
2023/08/07 05:24:09;;;;;;;2.67;1.98;;;10.60;99.90;;;;;;5035464;28;20025;-88
2023/08/07 05:26:35;;;;;;;3.33;1.77;;;10.60;99.90;;;;;;5034309;28;20079;-88
2023/08/07 05:29:01;;;;;;;4.07;1.70;;;10.60;99.90;;;;;;5042045;28;20498;-87
2023/08/07 05:34:08;;;;;;;2.80;1.63;;;10.60;99.90;;;;;;4992020;28;20477;-82
2023/08/07 05:36:34;;;;;;;3.85;1.70;;;10.70;99.90;;;;;;4998341;28;20105;-82
2023/08/07 05:39:00;;;;;;;2.65;1.70;;;10.70;99.90;;;;;;4998095;28;20045;-82
2023/08/07 05:41:25;;;;;;;3.03;1.83;;;10.80;99.90;;;;;;5011374;28;20023;-83
2023/08/07 05:43:51;;;;;;;3.55;1.65;;;10.90;99.90;;;;;;4994237;28;20026;-83
2023/08/07 05:46:17;;;;;;;4.63;2.20;;;10.90;99.90;;;;;;5001087;28;20442;-82
2023/08/07 05:48:42;;;;;;;4.93;3.65;;;11.00;99.90;;;;;;4993943;28;20037;-82
2023/08/07 05:51:08;;;;;;;5.35;2.05;;;11.00;99.90;;;;;;4993023;28;20045;-82
2023/08/07 05:53:35;;;;;;;4.65;2.40;;;11.00;99.90;;;;;;4993925;28;20471;-82
2023/08/07 05:56:00;;;;;;;7.55;2.22;;;11.10;99.90;;;;;;4994400;28;20034;-83
2023/08/07 05:58:26;;;;;;;5.50;2.00;;;11.20;99.90;;;;;;4992544;28;20030;-82
2023/08/07 06:00:52;;;;;;;4.65;2.47;;;11.30;99.90;;;;;;4993910;28;20030;-83
2023/08/07 06:03:18;;;;;;;3.08;1.98;;;11.50;99.90;;;;;;4993984;28;20021;-82
2023/08/07 06:05:44;;;;;;;3.05;2.00;;;11.70;99.90;;;;;;4993202;28;20138;-83
2023/08/07 06:08:09;;;;;;;2.50;1.80;;;11.80;99.90;;;;;;4992762;28;20113;-83
2023/08/07 06:10:35;;;;;;;2.92;2.08;;;11.90;99.90;;;;;;4992821;28;20034;-82
2023/08/07 06:13:01;;;;;;;3.50;1.95;;;12.10;99.90;;;;;;4993880;28;20041;-83
2023/08/07 06:15:27;;;;;;;4.28;1.88;;;12.20;99.90;;;;;;4992141;28;20030;-84
2023/08/07 06:17:52;;;;;;;4.85;1.85;;;12.60;99.90;;;;;;4993278;28;20030;-82
2023/08/07 06:20:18;;;;;;;5.65;1.98;;;12.90;99.90;;;;;;4992757;28;20026;-83
2023/08/07 06:22:44;;;;;;;4.22;1.83;;;13.10;99.90;;;;;;4992304;28;20030;-84
2023/08/07 06:25:10;;;;;;;4.93;1.73;;;13.30;99.90;;;;;;4993877;28;20129;-83
2023/08/07 06:27:36;;;;;;;4.90;1.67;;;13.40;99.90;;;;;;4993828;28;20470;-83
2023/08/07 06:30:01;;;;;;;3.45;1.90;;;13.50;99.90;;;;;;4993813;28;20040;-82
2023/08/07 06:32:27;;;;;;;2.08;1.73;;;13.60;99.90;;;;;;5013071;22;20137;-88
2023/08/07 06:34:53;;;;;;;2.55;1.65;;;13.60;99.90;;;;;;5022006;28;20121;-87
2023/08/07 06:37:19;;;;;;;5.72;1.63;;;13.60;99.90;;;;;;5013974;28;20041;-87
2023/08/07 06:39:46;;;;;;;2.88;1.63;;;13.60;99.90;;;;;;5014933;28;20020;-87
2023/08/07 06:42:12;;;;;;;4.13;2.10;;;13.60;99.90;;;;;;5009551;28;20035;-89
2023/08/07 06:44:38;;;;;;;3.60;1.63;;;13.70;99.90;;;;;;4995789;28;20109;-86
2023/08/07 06:47:03;;;;;;;3.15;1.50;;;13.70;99.90;;;;;;4995743;28;20018;-88
2023/08/07 06:49:31;;;;;;;3.90;1.77;;;13.80;99.90;;;;;;4995041;28;20052;-90
2023/08/07 06:51:57;;;;;;;4.18;2.47;;;13.90;99.90;;;;;;4995251;28;20023;-87
2023/08/07 06:54:23;;;;;;;5.13;2.10;;;13.90;99.90;;;;;;4995013;28;20563;-90
2023/08/07 06:56:49;;;;;;;4.72;1.77;;;14.00;99.90;;;;;;4995720;28;20042;-88
2023/08/07 06:59:15;;;;;;;2.50;1.40;;;14.10;99.90;;;;;;4999986;28;20501;-89
2023/08/07 07:01:40;;;;;;;3.05;1.45;;;14.00;99.90;;;;;;4994555;28;20041;-89
2023/08/07 07:04:06;;;;;;;3.60;1.60;;;14.00;99.90;;;;;;4994522;28;20471;-88
2023/08/07 07:06:32;;;;;;;3.90;1.73;;;14.10;99.90;;;;;;5001390;28;20031;-89
2023/08/07 07:08:58;;;;;;;9.02;1.85;;;14.10;99.90;;;;;;4993648;28;20080;-89
2023/08/07 07:11:24;;;;;;;4.38;2.03;;;14.20;99.90;;;;;;4997605;28;20435;-91
2023/08/07 07:13:50;;;;;;;2.53;1.67;;;14.20;99.90;;;;;;4994903;28;20038;-88
2023/08/07 07:16:18;;;;;;;5.15;2.00;;;14.40;99.90;;;;;;5013706;28;20076;-88
2023/08/07 07:18:43;;;;;;;4.60;1.83;;;14.40;99.90;;;;;;5003863;28;20030;-89
2023/08/07 07:21:09;;;;;;;3.22;1.55;;;14.40;99.90;;;;;;4995469;28;20026;-89
2023/08/07 07:23:35;;;;;;;4.43;1.98;;;14.50;99.90;;;;;;4995025;28;20031;-90
2023/08/07 07:26:00;;;;;;;2.95;1.63;;;14.60;99.90;;;;;;5009063;28;20458;-88
2023/08/07 07:28:26;;;;;;;5.68;2.65;;;14.60;99.90;;;;;;4994217;28;20064;-90
2023/08/07 07:30:52;;;;;;;2.42;1.77;;;14.70;99.90;;;;;;4992572;28;20022;-89
2023/08/07 07:33:17;;;;;;;3.10;1.60;;;14.60;99.90;;;;;;5041370;23;20042;-81
2023/08/07 07:35:43;;;;;;;6.07;1.85;;;14.70;99.90;;;;;;5038400;28;20053;-84
2023/08/07 07:38:10;;;;;;;3.30;1.70;;;14.70;99.90;;;;;;5043120;28;20025;-83
2023/08/07 07:40:35;;;;;;;4.30;2.15;;;14.70;99.90;;;;;;5050010;28;20021;-83
2023/08/07 07:43:01;;;;;;;4.30;1.83;;;14.80;99.90;;;;;;5038143;28;20383;-83
2023/08/07 07:45:27;;;;;;;4.45;1.63;;;14.80;99.90;;;;;;5028660;28;20140;-80
2023/08/07 07:47:53;;;;;;;3.28;1.83;;;14.90;99.90;;;;;;5017965;28;20509;-81
2023/08/07 07:50:18;;;;;;;2.67;1.73;;;15.00;99.90;;;;;;5028497;28;20537;-81
2023/08/07 07:52:44;;;;;;;5.35;2.28;;;15.00;99.90;;;;;;5022660;28;20582;-81
2023/08/07 07:55:10;;;;;;;4.55;2.03;;;15.10;99.90;;;;;;5028209;28;20045;-79
2023/08/07 07:57:36;;;;;;;2.22;1.48;;;15.20;99.90;;;;;;5028603;28;20036;-83
2023/08/07 08:00:03;;;;;;;3.15;1.50;;;15.30;99.90;;;;;;5028016;28;20085;-82
2023/08/07 08:02:29;;;;;;;4.25;1.42;;;15.40;99.90;;;;;;5029526;28;20029;-82
2023/08/07 08:04:56;;;;;;;3.72;1.60;;;15.50;99.90;;;;;;5029128;28;20021;-82
2023/08/07 08:07:22;;;;;;;3.65;1.45;;;15.50;99.90;;;;;;5030202;28;20517;-83
2023/08/07 08:09:47;;;;;;;4.63;1.60;;;15.60;99.90;;;;;;5029980;28;20029;-84
2023/08/07 08:12:13;;;;;;;3.13;1.95;;;15.60;99.90;;;;;;5029347;28;20029;-82
2023/08/07 08:14:38;;;;;;;3.10;1.42;;;15.70;99.90;;;;;;5030339;28;20018;-83
2023/08/07 08:17:04;;;;;;;2.75;1.20;;;15.90;99.90;;;;;;5029677;28;20117;-83
2023/08/07 08:19:30;;;;;;;3.58;1.58;;;16.00;99.90;;;;;;5029677;28;20022;-82
2023/08/07 08:21:55;;;;;;;4.30;1.45;;;16.10;99.90;;;;;;5025122;28;20057;-82
2023/08/07 08:24:21;;;;;;;1.25;1.15;;;16.10;99.90;;;;;;5028370;28;20021;-83
2023/08/07 08:26:47;;;;;;;4.82;1.60;;;16.20;99.90;;;;;;5029752;28;20032;-83
2023/08/07 08:29:14;;;;;;;3.05;1.40;;;16.30;99.90;;;;;;5026937;28;20513;-83
2023/08/07 08:34:19;;;;;;;3.85;1.02;;;16.40;99.90;;;;;;5029292;28;20046;-86
2023/08/07 08:36:44;;;;;;;4.38;1.35;;;16.50;99.20;;;;;;5032068;28;20052;-87
2023/08/07 08:39:10;;;;;;;2.20;1.40;;;16.60;99.90;;;;;;5033297;28;20467;-87
2023/08/07 08:41:36;;;;;;;4.35;1.35;;;16.60;99.70;;;;;;5036463;28;20021;-88
2023/08/07 08:44:03;;;;;;;2.15;1.27;;;16.80;99.90;;;;;;5018381;28;20030;-87
2023/08/07 08:46:30;;;;;;;2.50;1.30;;;17.10;98.10;;;;;;5018205;28;20056;-88
2023/08/07 08:49:00;;;;;;;1.55;1.30;;;17.40;97.60;;;;;;5017620;28;20025;-91
2023/08/07 08:51:26;;;;;;;2.07;1.70;;;18.00;97.00;;;;;;5035532;28;20020;-84
2023/08/07 08:53:53;;;;;;;2.97;1.08;;;18.40;94.10;;;;;;5037372;28;20021;-90
2023/08/07 08:56:22;;;;;;;2.58;0.95;;;18.60;93.00;;;;;;5043940;28;20414;-87
2023/08/07 08:58:49;;;;;;;3.10;1.40;;;18.50;93.30;;;;;;5036332;28;20028;-90
2023/08/07 09:01:16;;;;;;;3.90;1.00;;;18.40;92.30;;;;;;5044352;28;20017;-88
2023/08/07 09:03:42;;;;;;;3.22;1.27;;;18.30;93.70;;;;;;5036663;28;20032;-91
2023/08/07 09:06:09;;;;;;;4.13;1.10;;;18.50;92.80;;;;;;5040451;28;20025;-91
2023/08/07 09:08:37;;;;;;;1.98;1.10;;;18.60;92.10;;;;;;5048256;28;20013;-90
2023/08/07 09:11:04;;;;;;;2.63;1.08;;;18.80;91.50;;;;;;5042831;28;20497;-90
2023/08/07 09:13:33;;;;;;;2.80;1.10;;;19.20;88.20;;;;;;5044109;28;20693;-89
2023/08/07 09:16:00;;;;;;;3.22;1.10;;;19.90;88.00;;;;;;5036880;28;20454;-90
2023/08/07 09:18:26;;;;;;;1.38;1.00;;;20.60;83.50;;;;;;5036266;28;20034;-89
2023/08/07 09:20:51;;;;;;;1.95;1.33;;;20.80;81.40;;;;;;5037172;28;20032;-91
2023/08/07 09:23:17;;;;;;;2.40;0.80;;;20.90;83.50;;;;;;5036923;28;20405;-89
2023/08/07 09:25:43;;;;;;;2.33;1.00;;;20.60;81.50;;;;;;5027379;28;20062;-90
2023/08/07 09:28:09;;;;;;;2.58;1.20;;;20.30;83.10;;;;;;5036771;28;20021;-90
2023/08/07 09:30:37;;;;;;;1.80;1.15;;;20.30;84.30;;;;;;5036616;28;20013;-87
2023/08/07 09:33:03;;;;;;;2.20;0.90;;;20.70;79.80;;;;;;5063930;22;20025;-83
2023/08/07 09:35:31;;;;;;;2.38;1.00;;;21.30;81.50;;;;;;5053989;28;20516;-85
2023/08/07 09:37:57;;;;;;;5.35;1.00;;;22.20;73.70;;;;;;5053090;28;20091;-83
2023/08/07 09:40:23;;;;;;;2.03;0.90;;;23.00;71.20;;;;;;5036339;28;20017;-85
2023/08/07 09:42:53;;;;;;;1.67;1.00;;;24.00;66.20;;;;;;5053387;28;20031;-84
2023/08/07 09:45:23;;;;;;;1.30;0.80;;;24.80;64.70;;;;;;5027644;28;20035;-86
2023/08/07 09:48:00;;;;;;;1.13;0.90;;;26.00;60.00;;;;;;5051793;28;20104;-84
2023/08/07 09:50:26;;;;;;;1.77;0.85;;;26.70;57.70;;;;;;5051294;28;20078;-85
2023/08/07 09:52:52;;;;;;;2.33;0.90;;;27.60;55.90;;;;;;5034329;28;20021;-84
2023/08/07 09:55:18;;;;;;;3.50;1.40;;;28.30;53.70;;;;;;5051706;28;20557;-85
2023/08/07 09:57:44;;;;;;;2.25;0.98;;;28.90;51.00;;;;;;5051787;28;20385;-83
2023/08/07 10:00:12;;;;;;;1.45;0.65;;;29.30;49.00;;;;;;5052498;28;20060;-84
2023/08/07 10:02:38;;;;;;;1.00;0.60;;;30.00;48.00;;;;;;5052065;28;20092;-86
2023/08/07 10:05:09;;;;;;;1.00;0.50;;;30.20;46.40;;;;;;5047200;28;20029;-84
2023/08/07 10:07:35;;;;;;;3.50;1.00;;;30.30;44.30;;;;;;5043473;28;20488;-84
2023/08/07 10:10:03;;;;;;;1.88;0.90;;;30.10;45.00;;;;;;5051581;28;20029;-84
2023/08/07 10:12:29;;;;;;;2.88;1.30;;;29.70;46.20;;;;;;5041257;28;20057;-84
2023/08/07 10:14:55;;;;;;;1.23;0.63;;;29.80;49.50;;;;;;5045308;28;20355;-83
2023/08/07 10:17:22;;;;;;;2.65;0.90;;;30.30;44.10;;;;;;5046290;28;20035;-84
2023/08/07 10:19:48;;;;;;;2.80;1.25;;;30.80;44.20;;;;;;5045614;28;20027;-82
2023/08/07 10:22:16;;;;;;;5.80;1.55;;;28.90;46.40;;;;;;5050274;28;20078;-83
2023/08/07 10:24:44;;;;;;;1.20;1.00;;;29.30;47.20;;;;;;5051592;28;20021;-84
2023/08/07 10:27:12;;;;;;;3.97;1.13;;;29.10;48.20;;;;;;5024850;28;20021;-82
2023/08/07 10:29:39;;;;;;;3.22;1.02;;;29.30;48.60;;;;;;5040157;28;20108;-84
2023/08/07 10:32:07;;;;;;;2.97;1.25;;;28.40;49.60;;;;;;5057226;22;20001;-87
2023/08/07 10:34:37;;;;;;;4.07;1.40;;;27.90;49.60;;;;;;5033263;28;20474;-90
2023/08/07 10:37:07;;;;;;;2.45;0.98;;;27.50;51.70;;;;;;5034858;28;20021;-90
2023/08/07 10:39:33;;;;;;;3.25;1.33;;;27.20;52.20;;;;;;5016119;28;20481;-89
2023/08/07 10:41:59;;;;;;;6.60;1.55;;;26.50;53.50;;;;;;5016566;28;20049;-89
2023/08/07 10:44:26;;;;;;;4.55;1.50;;;26.40;53.50;;;;;;5015429;28;20053;-87
2023/08/07 10:46:53;;;;;;;1.77;1.20;;;27.00;56.00;;;;;;5032934;28;20023;-88
2023/08/07 10:49:40;;;;;;;2.40;1.27;;;29.00;56.90;;;;;;5031541;28;20026;-89
2023/08/07 10:52:13;;;;;;;1.98;1.00;;;29.20;49.90;;;;;;5027120;28;20064;-88
2023/08/07 10:54:49;;;;;;;2.42;1.00;;;28.30;50.40;;;;;;5020496;28;20024;-88
2023/08/07 10:57:19;;;;;;;4.60;1.55;;;27.70;49.20;;;;;;5032452;28;20026;-90
2023/08/07 11:00:05;;;;;;;2.28;1.10;;;26.70;52.50;;;;;;5033405;28;20533;-91
2023/08/07 11:02:31;;;;;;;3.30;1.00;;;26.70;54.00;;;;;;5014271;28;20076;-88
2023/08/07 11:04:57;;;;;;;3.53;1.13;;;26.00;55.80;;;;;;5029021;28;20041;-85
2023/08/07 11:07:24;;;;;;;2.70;0.98;;;25.30;56.60;;;;;;5016034;28;20053;-89
2023/08/07 11:09:50;;;;;;;1.73;1.10;;;25.70;59.30;;;;;;5033338;28;20021;-89
2023/08/07 11:12:16;;;;;;;2.45;0.98;;;26.80;55.80;;;;;;5032535;28;20079;-89
2023/08/07 11:14:42;;;;;;;1.67;1.08;;;27.10;54.20;;;;;;5033859;28;20085;-89
2023/08/07 11:17:08;;;;;;;1.52;1.00;;;26.50;54.70;;;;;;5033133;28;20117;-90
2023/08/07 11:19:33;;;;;;;3.08;1.10;;;26.30;55.10;;;;;;5031908;28;20025;-89
2023/08/07 11:22:00;;;;;;;2.08;0.82;;;27.30;56.10;;;;;;5032903;28;20478;-90
2023/08/07 11:24:27;;;;;;;2.25;1.15;;;27.20;53.30;;;;;;5031995;28;20471;-89
2023/08/07 11:26:55;;;;;;;1.67;1.02;;;28.40;54.20;;;;;;5025193;28;20525;-89
2023/08/07 11:29:23;;;;;;;5.45;1.35;;;29.40;49.00;;;;;;5032199;28;20032;-86
2023/08/07 11:34:28;;;;;;;2.53;0.82;;;31.00;46.60;;;;;;5049148;28;20041;-84
2023/08/07 11:36:55;;;;;;;3.22;0.95;;;31.50;46.40;;;;;;5051639;28;20029;-85
2023/08/07 11:39:21;;;;;;;2.28;1.05;;;31.70;44.20;;;;;;5051722;28;20112;-83
2023/08/07 11:41:47;;;;;;;1.75;1.25;;;31.80;43.90;;;;;;5051924;28;20096;-84
2023/08/07 11:44:13;;;;;;;2.25;0.98;;;32.10;43.10;;;;;;5032493;28;20040;-82
2023/08/07 11:46:39;;;;;;;2.95;0.90;;;32.80;42.50;;;;;;5050659;28;20023;-84
2023/08/07 11:49:04;;;;;;;1.98;1.00;;;33.70;42.90;;;;;;5049694;28;20036;-84
2023/08/07 11:51:30;;;;;;;5.10;1.63;;;33.60;40.20;;;;;;5050237;28;20112;-84
2023/08/07 11:53:58;;;;;;;5.55;1.70;;;33.80;42.50;;;;;;5050065;28;20021;-86
2023/08/07 11:56:24;;;;;;;1.70;0.90;;;34.10;40.00;;;;;;5037346;28;20059;-84
2023/08/07 11:58:52;;;;;;;3.35;1.33;;;34.10;39.70;;;;;;5050484;28;20052;-86
2023/08/07 12:01:20;;;;;;;3.40;1.10;;;33.80;39.30;;;;;;5050334;28;20425;-83
2023/08/07 12:04:10;;;;;;;2.47;1.38;;;34.50;40.50;;;;;;5044869;28;20028;-85
2023/08/07 12:06:39;;;;;;;2.33;1.05;;;33.90;39.20;;;;;;5040378;28;20016;-83
2023/08/07 12:09:11;;;;;;;2.60;1.20;;;32.80;40.20;;;;;;5050131;28;20035;-83
2023/08/07 12:11:36;;;;;;;1.77;1.10;;;32.60;40.50;;;;;;5031707;28;20021;-84
2023/08/07 12:14:02;;;;;;;2.75;1.27;;;31.90;42.40;;;;;;5049031;28;20499;-84
2023/08/07 12:16:33;;;;;;;2.08;0.95;;;30.90;43.70;;;;;;5050349;28;20018;-83
2023/08/07 12:18:59;;;;;;;2.40;1.30;;;30.30;47.50;;;;;;5031994;28;20025;-82
2023/08/07 12:21:25;;;;;;;5.57;1.63;;;30.20;45.00;;;;;;5050393;28;20025;-84
2023/08/07 12:23:54;;;;;;;3.30;1.20;;;30.20;44.70;;;;;;5050120;28;20154;-84
2023/08/07 12:26:20;;;;;;;4.13;1.70;;;30.40;43.60;;;;;;5050470;28;20397;-85
2023/08/07 12:28:46;;;;;;;3.00;1.50;;;29.50;44.30;;;;;;5049566;28;20026;-85
2023/08/07 12:31:12;;;;;;;2.58;1.27;;;29.00;47.00;;;;;;5049904;28;20100;-84
2023/08/07 12:33:37;;;;;;;3.22;1.27;;;29.00;46.50;;;;;;5053876;23;20086;-90
2023/08/07 12:36:03;;;;;;;3.60;1.30;;;28.80;48.50;;;;;;5053502;28;20029;-89
2023/08/07 12:38:29;;;;;;;7.18;1.88;;;28.70;50.40;;;;;;5053362;28;20031;-88
2023/08/07 12:40:55;;;;;;;2.00;1.30;;;28.60;48.50;;;;;;5046792;28;20033;-89
2023/08/07 12:43:21;;;;;;;5.78;1.95;;;28.50;49.70;;;;;;5034492;28;20033;-91
2023/08/07 12:45:46;;;;;;;3.60;1.35;;;28.00;50.20;;;;;;5051539;28;20028;-87
2023/08/07 12:48:12;;;;;;;3.75;1.60;;;27.50;51.60;;;;;;5044971;28;20056;-91
2023/08/07 12:50:39;;;;;;;5.20;1.63;;;27.10;53.20;;;;;;5052092;28;20096;-88
2023/08/07 12:53:05;;;;;;;2.25;1.10;;;27.50;51.60;;;;;;5051202;28;20032;-87